sensor_id;sensor_type;location;lat;lon;timestamp;pressure;altitude;pressure_sealevel;temperature;humidity
5455;BME280;2750;49.050;9.250;2022-07-17T00:04:05;99606.16;;;18.03;73.00
5455;BME280;2750;49.050;9.250;2022-07-17T00:09:08;99611.06;;;17.95;73.69
5455;BME280;2750;49.050;9.250;2022-07-17T00:14:09;99610.97;;;17.96;73.59
5455;BME280;2750;49.050;9.250;2022-07-17T00:19:11;99607.38;;;17.71;74.45
5455;BME280;2750;49.050;9.250;2022-07-17T00:24:13;99607.34;;;17.42;75.47
5455;BME280;2750;49.050;9.250;2022-07-17T00:29:20;99611.81;;;17.40;75.35
5455;BME280;2750;49.050;9.250;2022-07-17T00:34:21;99609.94;;;17.56;73.88
5455;BME280;2750;49.050;9.250;2022-07-17T00:39:24;99613.22;;;17.17;75.82
5455;BME280;2750;49.050;9.250;2022-07-17T00:44:26;99619.53;;;17.43;74.95
5455;BME280;2750;49.050;9.250;2022-07-17T00:49:28;99614.09;;;17.46;73.83
5455;BME280;2750;49.050;9.250;2022-07-17T00:54:34;99612.75;;;17.11;74.89
5455;BME280;2750;49.050;9.250;2022-07-17T00:59:36;99609.00;;;17.01;76.22
5455;BME280;2750;49.050;9.250;2022-07-17T01:04:39;99611.63;;;17.01;76.37
5455;BME280;2750;49.050;9.250;2022-07-17T01:09:42;99617.97;;;16.97;76.79
5455;BME280;2750;49.050;9.250;2022-07-17T01:14:44;99623.97;;;16.99;76.13
5455;BME280;2750;49.050;9.250;2022-07-17T01:19:46;99625.53;;;16.87;76.49
5455;BME280;2750;49.050;9.250;2022-07-17T01:24:49;99630.31;;;16.95;76.25
5455;BME280;2750;49.050;9.250;2022-07-17T01:29:50;99630.31;;;16.65;77.22
5455;BME280;2750;49.050;9.250;2022-07-17T01:34:52;99631.84;;;16.53;77.57
5455;BME280;2750;49.050;9.250;2022-07-17T01:39:55;99631.69;;;16.41;77.90
5455;BME280;2750;49.050;9.250;2022-07-17T01:44:56;99635.38;;;16.52;77.49
5455;BME280;2750;49.050;9.250;2022-07-17T01:49:58;99637.84;;;17.01;76.65
5455;BME280;2750;49.050;9.250;2022-07-17T01:55:01;99622.44;;;16.81;77.47
5455;BME280;2750;49.050;9.250;2022-07-17T02:00:05;99623.91;;;16.55;77.32
5455;BME280;2750;49.050;9.250;2022-07-17T02:05:08;99620.41;;;16.24;78.85
5455;BME280;2750;49.050;9.250;2022-07-17T02:10:11;99618.97;;;16.03;80.53
5455;BME280;2750;49.050;9.250;2022-07-17T02:15:14;99623.06;;;16.54;79.30
5455;BME280;2750;49.050;9.250;2022-07-17T02:20:15;99611.41;;;16.60;77.89
5455;BME280;2750;49.050;9.250;2022-07-17T02:25:18;99619.56;;;16.08;79.75
5455;BME280;2750;49.050;9.250;2022-07-17T02:30:20;99615.31;;;16.21;79.38
5455;BME280;2750;49.050;9.250;2022-07-17T02:35:21;99614.75;;;16.01;79.98
5455;BME280;2750;49.050;9.250;2022-07-17T02:40:24;99613.41;;;15.78;80.50
5455;BME280;2750;49.050;9.250;2022-07-17T02:45:26;99609.44;;;15.87;80.10
5455;BME280;2750;49.050;9.250;2022-07-17T02:50:27;99608.81;;;15.49;82.21
5455;BME280;2750;49.050;9.250;2022-07-17T02:55:30;99598.47;;;15.47;82.39
5455;BME280;2750;49.050;9.250;2022-07-17T03:00:32;99605.19;;;15.68;80.51
5455;BME280;2750;49.050;9.250;2022-07-17T03:05:33;99602.38;;;15.71;81.68
5455;BME280;2750;49.050;9.250;2022-07-17T03:10:36;99604.25;;;15.69;80.38
5455;BME280;2750;49.050;9.250;2022-07-17T03:15:38;99607.13;;;15.81;79.88
5455;BME280;2750;49.050;9.250;2022-07-17T03:20:39;99606.38;;;15.46;80.59
5455;BME280;2750;49.050;9.250;2022-07-17T03:25:42;99605.59;;;15.61;80.64
5455;BME280;2750;49.050;9.250;2022-07-17T03:30:44;99611.78;;;15.75;79.16
5455;BME280;2750;49.050;9.250;2022-07-17T03:35:45;99614.56;;;15.72;79.86
5455;BME280;2750;49.050;9.250;2022-07-17T03:40:48;99618.78;;;15.42;79.73
5455;BME280;2750;49.050;9.250;2022-07-17T03:45:50;99620.31;;;15.46;80.04
5455;BME280;2750;49.050;9.250;2022-07-17T03:50:51;99612.44;;;15.63;79.58
5455;BME280;2750;49.050;9.250;2022-07-17T03:55:54;99614.78;;;16.62;77.35
5455;BME280;2750;49.050;9.250;2022-07-17T04:00:55;99621.13;;;16.88;77.21
5455;BME280;2750;49.050;9.250;2022-07-17T04:05:57;99607.72;;;18.46;72.30
5455;BME280;2750;49.050;9.250;2022-07-17T04:11:00;99609.53;;;19.36;69.50
5455;BME280;2750;49.050;9.250;2022-07-17T04:16:01;99622.47;;;20.38;66.20
5455;BME280;2750;49.050;9.250;2022-07-17T04:21:05;99613.19;;;21.71;62.71
5455;BME280;2750;49.050;9.250;2022-07-17T04:26:08;99613.84;;;23.13;60.24
5455;BME280;2750;49.050;9.250;2022-07-17T04:31:09;99619.09;;;23.75;57.95
5455;BME280;2750;49.050;9.250;2022-07-17T04:36:11;99617.50;;;25.47;55.09
5455;BME280;2750;49.050;9.250;2022-07-17T04:41:14;99616.16;;;26.52;53.91
5455;BME280;2750;49.050;9.250;2022-07-17T04:46:15;99623.03;;;27.16;52.35
5455;BME280;2750;49.050;9.250;2022-07-17T04:51:16;99617.72;;;28.83;49.73
5455;BME280;2750;49.050;9.250;2022-07-17T04:56:19;99620.03;;;29.27;48.87
5455;BME280;2750;49.050;9.250;2022-07-17T05:01:21;99620.78;;;28.22;49.76
5455;BME280;2750;49.050;9.250;2022-07-17T05:06:23;99613.94;;;29.73;48.81
5455;BME280;2750;49.050;9.250;2022-07-17T05:11:25;99606.31;;;29.46;48.68
5455;BME280;2750;49.050;9.250;2022-07-17T05:16:27;99610.44;;;31.11;46.57
5455;BME280;2750;49.050;9.250;2022-07-17T05:21:28;99607.25;;;31.59;45.84
5455;BME280;2750;49.050;9.250;2022-07-17T05:26:31;99606.25;;;33.04;44.24
5455;BME280;2750;49.050;9.250;2022-07-17T05:31:33;99601.81;;;33.17;43.41
5455;BME280;2750;49.050;9.250;2022-07-17T05:36:34;99600.69;;;33.68;43.39
5455;BME280;2750;49.050;9.250;2022-07-17T05:41:38;99599.50;;;33.77;42.77
5455;BME280;2750;49.050;9.250;2022-07-17T05:46:39;99606.16;;;33.19;43.13
5455;BME280;2750;49.050;9.250;2022-07-17T05:51:40;99603.69;;;33.86;42.65
5455;BME280;2750;49.050;9.250;2022-07-17T05:56:43;99613.69;;;33.98;42.03
5455;BME280;2750;49.050;9.250;2022-07-17T06:01:45;99606.53;;;33.78;42.32
5455;BME280;2750;49.050;9.250;2022-07-17T06:06:47;99616.81;;;34.56;41.40
5455;BME280;2750;49.050;9.250;2022-07-17T06:11:50;99616.94;;;33.81;42.38
5455;BME280;2750;49.050;9.250;2022-07-17T06:16:51;99616.81;;;34.49;42.03
5455;BME280;2750;49.050;9.250;2022-07-17T06:21:53;99617.22;;;35.58;41.08
5455;BME280;2750;49.050;9.250;2022-07-17T06:26:56;99621.59;;;34.00;42.44
5455;BME280;2750;49.050;9.250;2022-07-17T06:31:57;99629.66;;;33.10;44.08
5455;BME280;2750;49.050;9.250;2022-07-17T06:36:59;99629.84;;;33.08;44.00
5455;BME280;2750;49.050;9.250;2022-07-17T06:42:02;99624.91;;;33.33;43.69
5455;BME280;2750;49.050;9.250;2022-07-17T06:47:03;99625.78;;;34.83;42.21
5455;BME280;2750;49.050;9.250;2022-07-17T06:52:05;99625.38;;;34.79;42.46
5455;BME280;2750;49.050;9.250;2022-07-17T06:57:08;99637.66;;;35.28;41.52
5455;BME280;2750;49.050;9.250;2022-07-17T07:02:10;99617.28;;;36.54;40.43
5455;BME280;2750;49.050;9.250;2022-07-17T07:07:12;99625.59;;;37.40;38.67
5455;BME280;2750;49.050;9.250;2022-07-17T07:12:15;99630.59;;;38.15;38.36
5455;BME280;2750;49.050;9.250;2022-07-17T07:17:17;99635.28;;;36.73;39.27
5455;BME280;2750;49.050;9.250;2022-07-17T07:22:18;99644.63;;;33.12;41.99
5455;BME280;2750;49.050;9.250;2022-07-17T07:27:21;99643.13;;;34.47;40.93
5455;BME280;2750;49.050;9.250;2022-07-17T07:32:23;99637.66;;;34.21;41.29
5455;BME280;2750;49.050;9.250;2022-07-17T07:37:24;99636.22;;;33.01;41.49
5455;BME280;2750;49.050;9.250;2022-07-17T07:42:27;99633.66;;;32.93;42.45
5455;BME280;2750;49.050;9.250;2022-07-17T07:47:29;99633.41;;;32.66;43.21
5455;BME280;2750;49.050;9.250;2022-07-17T07:52:34;99630.06;;;33.07;41.58
5455;BME280;2750;49.050;9.250;2022-07-17T07:57:37;99622.81;;;33.07;41.39
5455;BME280;2750;49.050;9.250;2022-07-17T08:02:39;99628.50;;;32.55;41.86
5455;BME280;2750;49.050;9.250;2022-07-17T08:07:40;99622.69;;;32.31;42.45
5455;BME280;2750;49.050;9.250;2022-07-17T08:12:43;99611.88;;;31.95;42.44
5455;BME280;2750;49.050;9.250;2022-07-17T08:17:45;99618.44;;;32.21;42.25
5455;BME280;2750;49.050;9.250;2022-07-17T08:22:48;99622.94;;;33.83;40.45
5455;BME280;2750;49.050;9.250;2022-07-17T08:27:52;99616.81;;;34.02;41.59
5455;BME280;2750;49.050;9.250;2022-07-17T08:32:53;99624.50;;;34.66;41.06
5455;BME280;2750;49.050;9.250;2022-07-17T08:37:54;99627.22;;;34.66;41.11
5455;BME280;2750;49.050;9.250;2022-07-17T08:42:58;99620.41;;;32.91;43.09
5455;BME280;2750;49.050;9.250;2022-07-17T08:48:01;99623.69;;;32.65;42.43
5455;BME280;2750;49.050;9.250;2022-07-17T08:53:03;99632.03;;;31.32;43.30
5455;BME280;2750;49.050;9.250;2022-07-17T08:58:06;99623.84;;;31.77;43.43
5455;BME280;2750;49.050;9.250;2022-07-17T09:03:08;99632.75;;;29.41;45.47
5455;BME280;2750;49.050;9.250;2022-07-17T09:08:16;99626.69;;;30.10;44.83
5455;BME280;2750;49.050;9.250;2022-07-17T09:13:21;99623.34;;;29.53;45.75
5455;BME280;2750;49.050;9.250;2022-07-17T09:18:23;99626.50;;;28.35;47.56
5455;BME280;2750;49.050;9.250;2022-07-17T09:23:26;99614.13;;;28.26;46.60
5455;BME280;2750;49.050;9.250;2022-07-17T09:28:28;99613.50;;;27.98;46.60
5455;BME280;2750;49.050;9.250;2022-07-17T09:33:33;99604.63;;;28.24;46.31
5455;BME280;2750;49.050;9.250;2022-07-17T09:38:36;99604.50;;;27.99;45.77
5455;BME280;2750;49.050;9.250;2022-07-17T09:43:42;99604.09;;;27.78;45.26
5455;BME280;2750;49.050;9.250;2022-07-17T09:48:48;99606.25;;;28.09;45.69
5455;BME280;2750;49.050;9.250;2022-07-17T09:53:52;99602.03;;;28.88;44.89
5455;BME280;2750;49.050;9.250;2022-07-17T09:59:00;99610.53;;;29.08;45.37
5455;BME280;2750;49.050;9.250;2022-07-17T10:04:02;99602.66;;;28.50;45.14
5455;BME280;2750;49.050;9.250;2022-07-17T10:09:04;99600.34;;;29.28;44.75
5455;BME280;2750;49.050;9.250;2022-07-17T10:14:09;99609.97;;;28.24;45.82
5455;BME280;2750;49.050;9.250;2022-07-17T10:19:15;99594.25;;;28.21;45.76
5455;BME280;2750;49.050;9.250;2022-07-17T10:24:18;99587.47;;;28.59;45.30
5455;BME280;2750;49.050;9.250;2022-07-17T10:29:29;99590.97;;;28.51;45.84
5455;BME280;2750;49.050;9.250;2022-07-17T10:34:43;99586.97;;;29.20;44.82
5455;BME280;2750;49.050;9.250;2022-07-17T10:40:06;99581.47;;;29.05;44.30
5455;BME280;2750;49.050;9.250;2022-07-17T10:45:11;99575.28;;;29.13;44.34
5455;BME280;2750;49.050;9.250;2022-07-17T10:50:14;99572.56;;;29.37;44.81
5455;BME280;2750;49.050;9.250;2022-07-17T10:55:20;99577.97;;;28.80;45.56
5455;BME280;2750;49.050;9.250;2022-07-17T11:00:24;99570.22;;;28.29;44.88
5455;BME280;2750;49.050;9.250;2022-07-17T11:05:26;99567.50;;;29.50;43.85
5455;BME280;2750;49.050;9.250;2022-07-17T11:10:28;99566.53;;;29.43;43.76
5455;BME280;2750;49.050;9.250;2022-07-17T11:15:37;99557.75;;;29.65;43.14
5455;BME280;2750;49.050;9.250;2022-07-17T11:20:53;99561.31;;;29.97;43.56
5455;BME280;2750;49.050;9.250;2022-07-17T11:25:58;99564.22;;;30.10;43.31
5455;BME280;2750;49.050;9.250;2022-07-17T11:31:03;99561.78;;;30.31;43.01
5455;BME280;2750;49.050;9.250;2022-07-17T11:36:05;99550.31;;;30.82;42.71
5455;BME280;2750;49.050;9.250;2022-07-17T11:41:06;99548.16;;;31.01;41.47
5455;BME280;2750;49.050;9.250;2022-07-17T11:46:09;99543.28;;;31.19;41.97
5455;BME280;2750;49.050;9.250;2022-07-17T11:51:11;99543.59;;;30.41;41.39
5455;BME280;2750;49.050;9.250;2022-07-17T11:56:19;99535.59;;;31.30;40.89
5455;BME280;2750;49.050;9.250;2022-07-17T12:01:23;99530.88;;;31.18;40.64
5455;BME280;2750;49.050;9.250;2022-07-17T12:06:25;99542.91;;;31.81;40.58
5455;BME280;2750;49.050;9.250;2022-07-17T12:11:27;99541.78;;;31.16;41.03
5455;BME280;2750;49.050;9.250;2022-07-17T12:16:31;99550.94;;;31.22;40.78
5455;BME280;2750;49.050;9.250;2022-07-17T12:21:33;99542.94;;;30.39;42.38
5455;BME280;2750;49.050;9.250;2022-07-17T12:26:35;99530.41;;;31.73;40.94
5455;BME280;2750;49.050;9.250;2022-07-17T12:31:38;99531.91;;;31.46;40.72
5455;BME280;2750;49.050;9.250;2022-07-17T12:36:40;99527.63;;;32.02;40.09
5455;BME280;2750;49.050;9.250;2022-07-17T12:41:41;99525.50;;;31.98;40.32
5455;BME280;2750;49.050;9.250;2022-07-17T12:46:44;99529.09;;;31.84;39.63
5455;BME280;2750;49.050;9.250;2022-07-17T12:51:46;99531.78;;;31.40;39.94
5455;BME280;2750;49.050;9.250;2022-07-17T12:56:47;99525.53;;;31.62;39.28
5455;BME280;2750;49.050;9.250;2022-07-17T13:01:50;99523.84;;;31.32;39.73
5455;BME280;2750;49.050;9.250;2022-07-17T13:06:52;99520.97;;;31.18;40.13
5455;BME280;2750;49.050;9.250;2022-07-17T13:11:54;99526.78;;;31.37;39.47
5455;BME280;2750;49.050;9.250;2022-07-17T13:16:57;99517.16;;;31.71;39.48
5455;BME280;2750;49.050;9.250;2022-07-17T13:22:00;99513.25;;;31.89;38.92
5455;BME280;2750;49.050;9.250;2022-07-17T13:27:03;99517.06;;;32.01;39.36
5455;BME280;2750;49.050;9.250;2022-07-17T13:32:06;99514.03;;;32.04;38.48
5455;BME280;2750;49.050;9.250;2022-07-17T13:37:08;99505.31;;;33.62;37.48
5455;BME280;2750;49.050;9.250;2022-07-17T13:42:10;99505.47;;;33.13;36.95
5455;BME280;2750;49.050;9.250;2022-07-17T13:47:13;99509.94;;;32.72;37.37
5455;BME280;2750;49.050;9.250;2022-07-17T13:52:14;99500.38;;;34.26;36.32
5455;BME280;2750;49.050;9.250;2022-07-17T13:57:16;99486.81;;;35.25;34.54
5455;BME280;2750;49.050;9.250;2022-07-17T14:02:18;99504.31;;;34.43;36.01
5455;BME280;2750;49.050;9.250;2022-07-17T14:07:20;99492.69;;;34.89;35.46
5455;BME280;2750;49.050;9.250;2022-07-17T14:12:22;99487.63;;;35.32;35.17
5455;BME280;2750;49.050;9.250;2022-07-17T14:17:25;99484.59;;;33.62;36.40
5455;BME280;2750;49.050;9.250;2022-07-17T14:22:26;99472.94;;;35.15;35.32
5455;BME280;2750;49.050;9.250;2022-07-17T14:27:28;99479.84;;;34.78;36.17
5455;BME280;2750;49.050;9.250;2022-07-17T14:32:30;99475.16;;;33.86;36.88
5455;BME280;2750;49.050;9.250;2022-07-17T14:37:32;99474.66;;;35.54;35.38
5455;BME280;2750;49.050;9.250;2022-07-17T14:42:33;99464.16;;;36.89;35.18
5455;BME280;2750;49.050;9.250;2022-07-17T14:47:36;99462.38;;;35.64;35.40
5455;BME280;2750;49.050;9.250;2022-07-17T14:52:39;99464.41;;;35.18;35.70
5455;BME280;2750;49.050;9.250;2022-07-17T14:57:41;99468.03;;;34.46;36.35
5455;BME280;2750;49.050;9.250;2022-07-17T15:02:44;99455.47;;;35.75;35.24
5455;BME280;2750;49.050;9.250;2022-07-17T15:07:45;99451.91;;;37.23;34.47
5455;BME280;2750;49.050;9.250;2022-07-17T15:12:47;99453.59;;;35.69;34.94
5455;BME280;2750;49.050;9.250;2022-07-17T15:17:49;99450.66;;;35.32;34.97
5455;BME280;2750;49.050;9.250;2022-07-17T15:22:51;99443.69;;;36.25;34.56
5455;BME280;2750;49.050;9.250;2022-07-17T15:27:52;99452.94;;;35.80;34.42
5455;BME280;2750;49.050;9.250;2022-07-17T15:32:55;99445.28;;;35.19;34.70
5455;BME280;2750;49.050;9.250;2022-07-17T15:37:57;99446.19;;;36.52;34.49
5455;BME280;2750;49.050;9.250;2022-07-17T15:42:58;99439.28;;;36.56;34.13
5455;BME280;2750;49.050;9.250;2022-07-17T15:48:01;99434.03;;;36.05;34.12
5455;BME280;2750;49.050;9.250;2022-07-17T15:53:02;99423.81;;;36.81;33.64
5455;BME280;2750;49.050;9.250;2022-07-17T15:58:04;99431.53;;;36.34;34.12
5455;BME280;2750;49.050;9.250;2022-07-17T16:03:07;99424.63;;;34.74;34.45
5455;BME280;2750;49.050;9.250;2022-07-17T16:08:09;99421.38;;;36.79;33.20
5455;BME280;2750;49.050;9.250;2022-07-17T16:13:10;99421.25;;;38.88;32.13
5455;BME280;2750;49.050;9.250;2022-07-17T16:18:14;99414.66;;;37.55;32.79
5455;BME280;2750;49.050;9.250;2022-07-17T16:23:15;99413.38;;;36.17;33.87
5455;BME280;2750;49.050;9.250;2022-07-17T16:28:17;99403.06;;;36.32;32.97
5455;BME280;2750;49.050;9.250;2022-07-17T16:33:20;99405.47;;;36.15;32.81
5455;BME280;2750;49.050;9.250;2022-07-17T16:38:21;99401.13;;;37.00;32.19
5455;BME280;2750;49.050;9.250;2022-07-17T16:43:23;99391.16;;;37.30;32.80
5455;BME280;2750;49.050;9.250;2022-07-17T16:48:26;99392.88;;;36.52;33.73
5455;BME280;2750;49.050;9.250;2022-07-17T16:53:27;99388.78;;;36.43;33.17
5455;BME280;2750;49.050;9.250;2022-07-17T16:58:29;99389.25;;;37.19;32.53
5455;BME280;2750;49.050;9.250;2022-07-17T17:03:32;99384.16;;;35.31;33.56
5455;BME280;2750;49.050;9.250;2022-07-17T17:08:33;99380.50;;;36.38;33.14
5455;BME280;2750;49.050;9.250;2022-07-17T17:13:35;99370.06;;;36.41;33.13
5455;BME280;2750;49.050;9.250;2022-07-17T17:18:37;99373.22;;;36.63;32.83
5455;BME280;2750;49.050;9.250;2022-07-17T17:23:39;99373.03;;;36.15;33.68
5455;BME280;2750;49.050;9.250;2022-07-17T17:28:41;99373.81;;;35.22;33.99
5455;BME280;2750;49.050;9.250;2022-07-17T17:33:43;99366.56;;;35.09;33.86
5455;BME280;2750;49.050;9.250;2022-07-17T17:38:45;99367.94;;;35.31;34.08
5455;BME280;2750;49.050;9.250;2022-07-17T17:43:46;99371.28;;;35.33;34.69
5455;BME280;2750;49.050;9.250;2022-07-17T17:48:49;99361.31;;;35.27;34.80
5455;BME280;2750;49.050;9.250;2022-07-17T17:53:51;99366.72;;;34.70;34.54
5455;BME280;2750;49.050;9.250;2022-07-17T17:58:52;99367.78;;;34.42;34.61
5455;BME280;2750;49.050;9.250;2022-07-17T18:03:55;99372.22;;;33.30;35.17
5455;BME280;2750;49.050;9.250;2022-07-17T18:08:57;99379.47;;;32.89;35.93
5455;BME280;2750;49.050;9.250;2022-07-17T18:13:58;99375.38;;;32.99;36.30
5455;BME280;2750;49.050;9.250;2022-07-17T18:19:01;99379.22;;;33.25;36.40
5455;BME280;2750;49.050;9.250;2022-07-17T18:24:03;99382.91;;;33.97;35.75
5455;BME280;2750;49.050;9.250;2022-07-17T18:29:05;99383.66;;;33.58;36.29
5455;BME280;2750;49.050;9.250;2022-07-17T18:34:08;99390.91;;;32.63;36.63
5455;BME280;2750;49.050;9.250;2022-07-17T18:39:09;99390.88;;;32.35;36.85
5455;BME280;2750;49.050;9.250;2022-07-17T18:44:13;99389.81;;;32.57;36.90
5455;BME280;2750;49.050;9.250;2022-07-17T18:49:16;99392.75;;;32.97;37.66
5455;BME280;2750;49.050;9.250;2022-07-17T18:54:17;99390.25;;;31.84;37.94
5455;BME280;2750;49.050;9.250;2022-07-17T18:59:19;99393.75;;;31.27;39.12
5455;BME280;2750;49.050;9.250;2022-07-17T19:04:22;99397.94;;;31.01;43.13
5455;BME280;2750;49.050;9.250;2022-07-17T19:09:24;99403.72;;;30.46;44.07
5455;BME280;2750;49.050;9.250;2022-07-17T19:14:25;99413.16;;;29.73;44.40
5455;BME280;2750;49.050;9.250;2022-07-17T19:19:28;99416.47;;;29.14;44.33
5455;BME280;2750;49.050;9.250;2022-07-17T19:24:29;99421.25;;;28.79;44.36
5455;BME280;2750;49.050;9.250;2022-07-17T19:29:31;99420.50;;;28.38;44.95
5455;BME280;2750;49.050;9.250;2022-07-17T19:34:34;99427.66;;;27.89;46.21
5455;BME280;2750;49.050;9.250;2022-07-17T19:39:35;99430.59;;;27.54;46.38
5455;BME280;2750;49.050;9.250;2022-07-17T19:44:38;99430.25;;;27.15;47.54
5455;BME280;2750;49.050;9.250;2022-07-17T19:49:42;99439.28;;;26.88;47.72
5455;BME280;2750;49.050;9.250;2022-07-17T19:54:43;99440.41;;;26.34;48.50
5455;BME280;2750;49.050;9.250;2022-07-17T19:59:45;99451.50;;;25.59;49.94
5455;BME280;2750;49.050;9.250;2022-07-17T20:04:47;99457.03;;;25.11;50.76
5455;BME280;2750;49.050;9.250;2022-07-17T20:09:49;99462.53;;;25.09;50.04
5455;BME280;2750;49.050;9.250;2022-07-17T20:14:50;99470.13;;;24.95;50.43
5455;BME280;2750;49.050;9.250;2022-07-17T20:19:53;99467.91;;;24.90;50.42
5455;BME280;2750;49.050;9.250;2022-07-17T20:24:55;99461.53;;;24.64;51.31
5455;BME280;2750;49.050;9.250;2022-07-17T20:29:57;99462.97;;;24.39;51.89
5455;BME280;2750;49.050;9.250;2022-07-17T20:35:00;99464.91;;;24.08;52.79
5455;BME280;2750;49.050;9.250;2022-07-17T20:40:02;99477.19;;;24.09;52.88
5455;BME280;2750;49.050;9.250;2022-07-17T20:45:04;99471.59;;;23.74;53.94
5455;BME280;2750;49.050;9.250;2022-07-17T20:50:09;99472.50;;;23.54;54.76
5455;BME280;2750;49.050;9.250;2022-07-17T20:55:11;99483.09;;;23.44;55.43
5455;BME280;2750;49.050;9.250;2022-07-17T21:00:13;99479.00;;;23.40;55.72
5455;BME280;2750;49.050;9.250;2022-07-17T21:05:15;99478.81;;;23.22;56.83
5455;BME280;2750;49.050;9.250;2022-07-17T21:10:17;99487.84;;;23.20;57.37
5455;BME280;2750;49.050;9.250;2022-07-17T21:15:19;99500.03;;;23.22;57.25
5455;BME280;2750;49.050;9.250;2022-07-17T21:20:22;99492.13;;;22.81;55.90
5455;BME280;2750;49.050;9.250;2022-07-17T21:25:24;99499.69;;;22.44;56.59
5455;BME280;2750;49.050;9.250;2022-07-17T21:30:25;99495.97;;;22.35;58.23
5455;BME280;2750;49.050;9.250;2022-07-17T21:35:28;99505.25;;;22.09;60.41
5455;BME280;2750;49.050;9.250;2022-07-17T21:40:30;99521.38;;;22.06;59.39
5455;BME280;2750;49.050;9.250;2022-07-17T21:45:32;99524.56;;;21.56;60.80
5455;BME280;2750;49.050;9.250;2022-07-17T21:50:35;99526.28;;;21.45;60.50
5455;BME280;2750;49.050;9.250;2022-07-17T21:55:36;99525.53;;;21.55;60.04
5455;BME280;2750;49.050;9.250;2022-07-17T22:00:38;99535.97;;;21.67;58.73
5455;BME280;2750;49.050;9.250;2022-07-17T22:05:41;99527.94;;;21.69;58.18
5455;BME280;2750;49.050;9.250;2022-07-17T22:10:43;99532.84;;;21.51;57.20
5455;BME280;2750;49.050;9.250;2022-07-17T22:15:45;99544.53;;;21.26;57.21
5455;BME280;2750;49.050;9.250;2022-07-17T22:20:48;99534.44;;;21.42;57.68
5455;BME280;2750;49.050;9.250;2022-07-17T22:25:50;99537.31;;;21.39;58.15
5455;BME280;2750;49.050;9.250;2022-07-17T22:30:52;99534.81;;;21.38;58.54
5455;BME280;2750;49.050;9.250;2022-07-17T22:35:57;99532.03;;;21.17;59.28
5455;BME280;2750;49.050;9.250;2022-07-17T22:40:59;99530.59;;;21.24;59.10
5455;BME280;2750;49.050;9.250;2022-07-17T22:46:00;99518.13;;;21.15;60.19
5455;BME280;2750;49.050;9.250;2022-07-17T22:51:03;99517.13;;;21.16;62.09
5455;BME280;2750;49.050;9.250;2022-07-17T22:56:05;99512.00;;;20.58;63.91
5455;BME280;2750;49.050;9.250;2022-07-17T23:01:07;99520.19;;;20.31;65.02
5455;BME280;2750;49.050;9.250;2022-07-17T23:06:11;99523.91;;;20.39;65.14
5455;BME280;2750;49.050;9.250;2022-07-17T23:11:16;99527.25;;;20.30;65.09
5455;BME280;2750;49.050;9.250;2022-07-17T23:16:17;99520.94;;;20.20;64.85
5455;BME280;2750;49.050;9.250;2022-07-17T23:21:20;99523.97;;;20.27;63.49
5455;BME280;2750;49.050;9.250;2022-07-17T23:26:22;99523.00;;;19.93;66.78
5455;BME280;2750;49.050;9.250;2022-07-17T23:31:23;99531.91;;;19.67;67.19
5455;BME280;2750;49.050;9.250;2022-07-17T23:36:27;99535.09;;;19.95;66.40
5455;BME280;2750;49.050;9.250;2022-07-17T23:41:28;99530.53;;;19.74;67.12
5455;BME280;2750;49.050;9.250;2022-07-17T23:46:30;99528.72;;;19.74;63.60
5455;BME280;2750;49.050;9.250;2022-07-17T23:51:32;99525.03;;;19.77;62.60
5455;BME280;2750;49.050;9.250;2022-07-17T23:56:34;99527.63;;;19.66;61.63
